Terminal Aerodrome Forecast
Issued by NWS

Home | Current Version | Previous Version | Text Only | Print | Product List | Glossary On
Versions: 1 2 3 4 5 6 7 8 9 10 11 12 13 14 15 16
000
FTUS43 KDTX 162335
TAFPTK
TAF
KPTK 162335Z 1700/1724 09005KT 4SM -FZRA BR OVC025
      TEMPO 1700/1704 2SM -FZRAPL OVC015
     FM170400 09005KT 2SM -RA BR OVC008
     FM170700 10007KT 1SM RA BR OVC004
     FM171200 12005KT 1/2SM SHRA FG VV002
     FM171600 22012KT 4SM BR OVC008=

USA.gov is the U.S. government's official web portal to all federal, state and local government web resources and services.